<?xml version="1.0" encoding="UTF-8" standalone="no" ?>
<gpx xmlns="http://www.topografix.com/GPX/1/1" xmlns:xsi="http://www.w3.org/2001/XMLSchema-instance" xsi:schemaLocation="http://www.topografix.com/GPX/1/1 http://www.topografix.com/GPX/1/1/gpx.xsd" version="1.1" creator="VisuGPX - https://www.visugpx.com">
  <metadata>
    <name>14740337-bécajat</name>
    <desc><![CDATA[Circuit non balisé à faire avec la carte en main où GPS rando.]]></desc>
  </metadata>
  <trk>
    <name><![CDATA[14740337-bécajat]]></name>
    <trkseg>
      <trkpt lat="46.08622" lon="3.8244">
        <ele>898</ele>
        <time>2022-05-13T13:24:01Z</time>
      </trkpt>
      <trkpt lat="46.08634" lon="3.82384">
        <ele>901</ele>
        <time>2022-05-13T13:24:55Z</time>
      </trkpt>
      <trkpt lat="46.08668" lon="3.82345">
        <ele>900</ele>
        <time>2022-05-13T13:25:53Z</time>
      </trkpt>
      <trkpt lat="46.08695" lon="3.82308">
        <ele>896</ele>
        <time>2022-05-13T13:26:43Z</time>
      </trkpt>
      <trkpt lat="46.0875" lon="3.82281">
        <ele>889</ele>
        <time>2022-05-13T13:28:00Z</time>
      </trkpt>
      <trkpt lat="46.08831" lon="3.82314">
        <ele>882</ele>
        <time>2022-05-13T13:29:53Z</time>
      </trkpt>
      <trkpt lat="46.08894" lon="3.82255">
        <ele>874</ele>
        <time>2022-05-13T13:31:33Z</time>
      </trkpt>
      <trkpt lat="46.08917" lon="3.8225">
        <ele>872</ele>
        <time>2022-05-13T13:32:04Z</time>
      </trkpt>
      <trkpt lat="46.08935" lon="3.82261">
        <ele>872</ele>
        <time>2022-05-13T13:32:30Z</time>
      </trkpt>
      <trkpt lat="46.08973" lon="3.82281">
        <ele>873</ele>
        <time>2022-05-13T13:33:24Z</time>
      </trkpt>
      <trkpt lat="46.09014" lon="3.82285">
        <ele>874</ele>
        <time>2022-05-13T13:34:19Z</time>
      </trkpt>
      <trkpt lat="46.09057" lon="3.8228">
        <ele>878</ele>
        <time>2022-05-13T13:35:17Z</time>
      </trkpt>
      <trkpt lat="46.09119" lon="3.82261">
        <ele>883</ele>
        <time>2022-05-13T13:36:41Z</time>
      </trkpt>
      <trkpt lat="46.09183" lon="3.82249">
        <ele>890</ele>
        <time>2022-05-13T13:38:07Z</time>
      </trkpt>
      <trkpt lat="46.09231" lon="3.82193">
        <ele>886</ele>
        <time>2022-05-13T13:39:30Z</time>
      </trkpt>
      <trkpt lat="46.09264" lon="3.82174">
        <ele>885</ele>
        <time>2022-05-13T13:40:17Z</time>
      </trkpt>
      <trkpt lat="46.0932" lon="3.82165">
        <ele>885</ele>
        <time>2022-05-13T13:41:32Z</time>
      </trkpt>
      <trkpt lat="46.09388" lon="3.82125">
        <ele>885</ele>
        <time>2022-05-13T13:43:10Z</time>
      </trkpt>
      <trkpt lat="46.09445" lon="3.8209">
        <ele>886</ele>
        <time>2022-05-13T13:44:33Z</time>
      </trkpt>
      <trkpt lat="46.09551" lon="3.81978">
        <ele>886</ele>
        <time>2022-05-13T13:47:28Z</time>
      </trkpt>
      <trkpt lat="46.09667" lon="3.82008">
        <ele>888</ele>
        <time>2022-05-13T13:50:06Z</time>
      </trkpt>
      <trkpt lat="46.09695" lon="3.82092">
        <ele>885</ele>
        <time>2022-05-13T13:51:32Z</time>
      </trkpt>
      <trkpt lat="46.09715" lon="3.82142">
        <ele>885</ele>
        <time>2022-05-13T13:52:25Z</time>
      </trkpt>
      <trkpt lat="46.09743" lon="3.82228">
        <ele>889</ele>
        <time>2022-05-13T13:53:53Z</time>
      </trkpt>
      <trkpt lat="46.09808" lon="3.82312">
        <ele>887</ele>
        <time>2022-05-13T13:55:50Z</time>
      </trkpt>
      <trkpt lat="46.09893" lon="3.824">
        <ele>885</ele>
        <time>2022-05-13T13:58:09Z</time>
      </trkpt>
      <trkpt lat="46.09883" lon="3.82549">
        <ele>893</ele>
        <time>2022-05-13T14:00:28Z</time>
      </trkpt>
      <trkpt lat="46.09885" lon="3.82679">
        <ele>892</ele>
        <time>2022-05-13T14:02:28Z</time>
      </trkpt>
      <trkpt lat="46.09903" lon="3.82809">
        <ele>885</ele>
        <time>2022-05-13T14:04:31Z</time>
      </trkpt>
      <trkpt lat="46.09888" lon="3.8287">
        <ele>881</ele>
        <time>2022-05-13T14:05:31Z</time>
      </trkpt>
      <trkpt lat="46.09837" lon="3.82935">
        <ele>872</ele>
        <time>2022-05-13T14:07:01Z</time>
      </trkpt>
      <trkpt lat="46.09901" lon="3.82896">
        <ele>877</ele>
        <time>2022-05-13T14:08:34Z</time>
      </trkpt>
      <trkpt lat="46.09935" lon="3.82841">
        <ele>877</ele>
        <time>2022-05-13T14:09:42Z</time>
      </trkpt>
      <trkpt lat="46.09971" lon="3.82673">
        <ele>869</ele>
        <time>2022-05-13T14:12:25Z</time>
      </trkpt>
      <trkpt lat="46.10012" lon="3.82589">
        <ele>857</ele>
        <time>2022-05-13T14:14:00Z</time>
      </trkpt>
      <trkpt lat="46.10037" lon="3.82609">
        <ele>850</ele>
        <time>2022-05-13T14:14:38Z</time>
      </trkpt>
      <trkpt lat="46.10025" lon="3.82682">
        <ele>850</ele>
        <time>2022-05-13T14:15:48Z</time>
      </trkpt>
      <trkpt lat="46.10177" lon="3.8254">
        <ele>838</ele>
        <time>2022-05-13T14:19:49Z</time>
      </trkpt>
      <trkpt lat="46.10323" lon="3.82334">
        <ele>849</ele>
        <time>2022-05-13T14:24:22Z</time>
      </trkpt>
      <trkpt lat="46.10438" lon="3.82465">
        <ele>817</ele>
        <time>2022-05-13T14:27:38Z</time>
      </trkpt>
      <trkpt lat="46.10506" lon="3.82411">
        <ele>817</ele>
        <time>2022-05-13T14:29:21Z</time>
      </trkpt>
      <trkpt lat="46.10578" lon="3.82358">
        <ele>816</ele>
        <time>2022-05-13T14:31:09Z</time>
      </trkpt>
      <trkpt lat="46.10616" lon="3.82271">
        <ele>817</ele>
        <time>2022-05-13T14:32:44Z</time>
      </trkpt>
      <trkpt lat="46.10621" lon="3.82194">
        <ele>821</ele>
        <time>2022-05-13T14:33:56Z</time>
      </trkpt>
      <trkpt lat="46.10622" lon="3.82129">
        <ele>822</ele>
        <time>2022-05-13T14:34:56Z</time>
      </trkpt>
      <trkpt lat="46.1061" lon="3.82004">
        <ele>821</ele>
        <time>2022-05-13T14:36:53Z</time>
      </trkpt>
      <trkpt lat="46.10562" lon="3.81893">
        <ele>821</ele>
        <time>2022-05-13T14:38:54Z</time>
      </trkpt>
      <trkpt lat="46.1053" lon="3.81887">
        <ele>826</ele>
        <time>2022-05-13T14:39:37Z</time>
      </trkpt>
      <trkpt lat="46.10546" lon="3.8182">
        <ele>819</ele>
        <time>2022-05-13T14:40:42Z</time>
      </trkpt>
      <trkpt lat="46.10622" lon="3.81665">
        <ele>791</ele>
        <time>2022-05-13T14:43:38Z</time>
      </trkpt>
      <trkpt lat="46.107" lon="3.81597">
        <ele>786</ele>
        <time>2022-05-13T14:45:40Z</time>
      </trkpt>
      <trkpt lat="46.10729" lon="3.81627">
        <ele>787</ele>
        <time>2022-05-13T14:46:27Z</time>
      </trkpt>
      <trkpt lat="46.10737" lon="3.81575">
        <ele>787</ele>
        <time>2022-05-13T14:47:16Z</time>
      </trkpt>
      <trkpt lat="46.10752" lon="3.81523">
        <ele>785</ele>
        <time>2022-05-13T14:48:09Z</time>
      </trkpt>
      <trkpt lat="46.10788" lon="3.8141">
        <ele>781</ele>
        <time>2022-05-13T14:50:04Z</time>
      </trkpt>
      <trkpt lat="46.10837" lon="3.81208">
        <ele>786</ele>
        <time>2022-05-13T14:53:22Z</time>
      </trkpt>
      <trkpt lat="46.10882" lon="3.8098">
        <ele>782</ele>
        <time>2022-05-13T14:57:01Z</time>
      </trkpt>
      <trkpt lat="46.10977" lon="3.80821">
        <ele>782</ele>
        <time>2022-05-13T15:00:15Z</time>
      </trkpt>
      <trkpt lat="46.11091" lon="3.80645">
        <ele>779</ele>
        <time>2022-05-13T15:03:58Z</time>
      </trkpt>
      <trkpt lat="46.11155" lon="3.80613">
        <ele>775</ele>
        <time>2022-05-13T15:05:28Z</time>
      </trkpt>
      <trkpt lat="46.11032" lon="3.80594">
        <ele>773</ele>
        <time>2022-05-13T15:08:13Z</time>
      </trkpt>
      <trkpt lat="46.10823" lon="3.80807">
        <ele>766</ele>
        <time>2022-05-13T15:13:55Z</time>
      </trkpt>
      <trkpt lat="46.10779" lon="3.80803">
        <ele>764</ele>
        <time>2022-05-13T15:14:54Z</time>
      </trkpt>
      <trkpt lat="46.10786" lon="3.80766">
        <ele>763</ele>
        <time>2022-05-13T15:15:29Z</time>
      </trkpt>
      <trkpt lat="46.10735" lon="3.80578">
        <ele>761</ele>
        <time>2022-05-13T15:18:36Z</time>
      </trkpt>
      <trkpt lat="46.10668" lon="3.80509">
        <ele>759</ele>
        <time>2022-05-13T15:20:26Z</time>
      </trkpt>
      <trkpt lat="46.1059" lon="3.80481">
        <ele>764</ele>
        <time>2022-05-13T15:22:13Z</time>
      </trkpt>
      <trkpt lat="46.10517" lon="3.80529">
        <ele>766</ele>
        <time>2022-05-13T15:24:00Z</time>
      </trkpt>
      <trkpt lat="46.10381" lon="3.80563">
        <ele>773</ele>
        <time>2022-05-13T15:27:04Z</time>
      </trkpt>
      <trkpt lat="46.1017" lon="3.80719">
        <ele>777</ele>
        <time>2022-05-13T15:32:21Z</time>
      </trkpt>
      <trkpt lat="46.1013" lon="3.80723">
        <ele>782</ele>
        <time>2022-05-13T15:33:14Z</time>
      </trkpt>
      <trkpt lat="46.1006" lon="3.80715">
        <ele>794</ele>
        <time>2022-05-13T15:34:48Z</time>
      </trkpt>
      <trkpt lat="46.10027" lon="3.80715">
        <ele>800</ele>
        <time>2022-05-13T15:35:32Z</time>
      </trkpt>
      <trkpt lat="46.1002" lon="3.80713">
        <ele>801</ele>
        <time>2022-05-13T15:35:42Z</time>
      </trkpt>
      <trkpt lat="46.10012" lon="3.80706">
        <ele>803</ele>
        <time>2022-05-13T15:35:54Z</time>
      </trkpt>
      <trkpt lat="46.09998" lon="3.80699">
        <ele>806</ele>
        <time>2022-05-13T15:36:14Z</time>
      </trkpt>
      <trkpt lat="46.09974" lon="3.80693">
        <ele>811</ele>
        <time>2022-05-13T15:36:46Z</time>
      </trkpt>
      <trkpt lat="46.09957" lon="3.80682">
        <ele>816</ele>
        <time>2022-05-13T15:37:11Z</time>
      </trkpt>
      <trkpt lat="46.09941" lon="3.80683">
        <ele>819</ele>
        <time>2022-05-13T15:37:33Z</time>
      </trkpt>
      <trkpt lat="46.09914" lon="3.80685">
        <ele>824</ele>
        <time>2022-05-13T15:38:09Z</time>
      </trkpt>
      <trkpt lat="46.09903" lon="3.80685">
        <ele>825</ele>
        <time>2022-05-13T15:38:23Z</time>
      </trkpt>
      <trkpt lat="46.0988" lon="3.80686">
        <ele>828</ele>
        <time>2022-05-13T15:38:54Z</time>
      </trkpt>
      <trkpt lat="46.0985" lon="3.80692">
        <ele>830</ele>
        <time>2022-05-13T15:39:34Z</time>
      </trkpt>
      <trkpt lat="46.09829" lon="3.80705">
        <ele>832</ele>
        <time>2022-05-13T15:40:05Z</time>
      </trkpt>
      <trkpt lat="46.09809" lon="3.80699">
        <ele>836</ele>
        <time>2022-05-13T15:40:32Z</time>
      </trkpt>
      <trkpt lat="46.09754" lon="3.80715">
        <ele>842</ele>
        <time>2022-05-13T15:41:47Z</time>
      </trkpt>
      <trkpt lat="46.09689" lon="3.8071">
        <ele>850</ele>
        <time>2022-05-13T15:43:14Z</time>
      </trkpt>
      <trkpt lat="46.09617" lon="3.80666">
        <ele>864</ele>
        <time>2022-05-13T15:44:58Z</time>
      </trkpt>
      <trkpt lat="46.09576" lon="3.80776">
        <ele>868</ele>
        <time>2022-05-13T15:46:54Z</time>
      </trkpt>
      <trkpt lat="46.09486" lon="3.80984">
        <ele>874</ele>
        <time>2022-05-13T15:50:41Z</time>
      </trkpt>
      <trkpt lat="46.09375" lon="3.8114">
        <ele>867</ele>
        <time>2022-05-13T15:54:08Z</time>
      </trkpt>
      <trkpt lat="46.09345" lon="3.8137">
        <ele>858</ele>
        <time>2022-05-13T15:57:44Z</time>
      </trkpt>
      <trkpt lat="46.09336" lon="3.81585">
        <ele>854</ele>
        <time>2022-05-13T16:01:03Z</time>
      </trkpt>
      <trkpt lat="46.09282" lon="3.81847">
        <ele>840</ele>
        <time>2022-05-13T16:05:16Z</time>
      </trkpt>
      <trkpt lat="46.09311" lon="3.81917">
        <ele>845</ele>
        <time>2022-05-13T16:06:32Z</time>
      </trkpt>
      <trkpt lat="46.09239" lon="3.82008">
        <ele>854</ele>
        <time>2022-05-13T16:08:40Z</time>
      </trkpt>
      <trkpt lat="46.09031" lon="3.82267">
        <ele>874</ele>
        <time>2022-05-13T16:14:46Z</time>
      </trkpt>
      <trkpt lat="46.08921" lon="3.82215">
        <ele>874</ele>
        <time>2022-05-13T16:17:21Z</time>
      </trkpt>
      <trkpt lat="46.08824" lon="3.82285">
        <ele>882</ele>
        <time>2022-05-13T16:19:46Z</time>
      </trkpt>
      <trkpt lat="46.08748" lon="3.82249">
        <ele>889</ele>
        <time>2022-05-13T16:21:32Z</time>
      </trkpt>
      <trkpt lat="46.08673" lon="3.82286">
        <ele>899</ele>
        <time>2022-05-13T16:23:18Z</time>
      </trkpt>
      <trkpt lat="46.08621" lon="3.82365">
        <ele>901</ele>
        <time>2022-05-13T16:24:59Z</time>
      </trkpt>
      <trkpt lat="46.08611" lon="3.82411">
        <ele>899</ele>
        <time>2022-05-13T16:25:44Z</time>
      </trkpt>
    </trkseg>
  </trk>
</gpx>